createdAt,value
2016-09-14T00:00:30.750Z,25.79
2016-09-14T00:01:43.496Z,25.71
2016-09-14T00:02:29.127Z,25.69
2016-09-14T00:03:29.777Z,25.82
2016-09-14T00:04:29.417Z,25.75
2016-09-14T00:05:29.135Z,25.97
2016-09-14T00:06:29.182Z,25.9
2016-09-14T00:07:30.094Z,25.9
2016-09-14T00:08:29.201Z,25.99
2016-09-14T00:09:29.160Z,25.86
2016-09-14T00:10:28.720Z,25.82
2016-09-14T00:11:29.638Z,25.9
2016-09-14T00:12:42.924Z,25.99
2016-09-14T00:13:28.964Z,26.25
2016-09-14T00:14:29.081Z,26.15
2016-09-14T00:15:28.154Z,26.12
2016-09-14T00:16:30.115Z,26.24
2016-09-14T00:17:29.100Z,26.21
2016-09-14T00:18:29.326Z,26.09
2016-09-14T00:19:29.216Z,25.9
2016-09-14T00:20:29.164Z,26.05
2016-09-14T00:21:29.667Z,26.12
2016-09-14T00:22:29.800Z,26.15
2016-09-14T00:23:30.017Z,26.2
2016-09-14T00:24:28.832Z,26.18
2016-09-14T00:25:43.612Z,26.05
2016-09-14T00:26:29.098Z,26.05
2016-09-14T00:27:42.975Z,25.9
2016-09-14T00:28:28.306Z,25.84
2016-09-14T00:29:43.533Z,25.64
2016-09-14T00:30:29.102Z,25.59
2016-09-14T00:31:28.622Z,25.57
2016-09-14T00:32:27.744Z,25.64
2016-09-14T00:33:27.765Z,25.57
2016-09-14T00:34:28.890Z,25.56
2016-09-14T00:35:27.671Z,25.56
2016-09-14T00:36:35.284Z,25.39
2016-09-14T00:37:29.049Z,25.28
2016-09-14T00:38:42.658Z,25.07
2016-09-14T00:39:27.924Z,25.16
2016-09-14T00:40:29.483Z,25.12
2016-09-14T00:41:28.415Z,25.13
2016-09-14T00:42:28.397Z,25.31
2016-09-14T00:43:28.768Z,25.22
2016-09-14T00:44:28.620Z,25.3
2016-09-14T00:45:27.732Z,25.34
2016-09-14T00:46:27.836Z,25.35
2016-09-14T00:47:29.090Z,25.2
2016-09-14T00:48:27.932Z,25.31
2016-09-14T00:49:28.492Z,25.19
2016-09-14T00:50:29.394Z,25.22
2016-09-14T00:51:29.405Z,25.24
2016-09-14T00:52:28.367Z,25.13
2016-09-14T00:53:42.598Z,25.13
2016-09-14T00:54:28.369Z,25.27
2016-09-14T00:55:29.078Z,25.35
2016-09-14T00:56:28.648Z,25.5
2016-09-14T00:57:27.466Z,25.52
2016-09-14T00:58:42.876Z,25.54
2016-09-14T00:59:27.681Z,25.56
2016-09-14T01:00:42.095Z,25.37
2016-09-14T01:01:27.772Z,25.34
2016-09-14T01:02:27.395Z,25.35
2016-09-14T01:03:27.049Z,25.38
2016-09-14T01:04:27.037Z,25.17
2016-09-14T01:05:27.000Z,25.1
2016-09-14T01:06:26.995Z,25.12
2016-09-14T01:07:27.019Z,25.02
2016-09-14T01:08:26.963Z,24.95
2016-09-14T01:09:26.914Z,24.92
2016-09-14T01:10:28.535Z,24.87
2016-09-14T01:11:26.914Z,24.79
2016-09-14T01:12:26.874Z,25
2016-09-14T01:13:26.834Z,24.91
2016-09-14T01:14:26.917Z,24.94
2016-09-14T01:15:26.787Z,24.87
2016-09-14T01:16:27.125Z,24.87
2016-09-14T01:18:26.703Z,24.85
2016-09-14T01:19:33.436Z,25.13
2016-09-14T01:20:29.287Z,25.07
2016-09-14T01:21:26.676Z,25.1
2016-09-14T01:22:26.625Z,25.13
2016-09-14T01:23:27.636Z,25.22
2016-09-14T01:24:27.261Z,25.3
2016-09-14T01:25:26.661Z,25.3
2016-09-14T01:26:26.826Z,25.35
2016-09-14T01:27:27.066Z,25.46
2016-09-14T01:28:26.694Z,25.57
2016-09-14T01:29:28.295Z,25.5
2016-09-14T01:30:27.030Z,25.43
2016-09-14T01:31:29.308Z,25.47
2016-09-14T01:32:27.097Z,25.3
2016-09-14T01:33:27.075Z,25.16
2016-09-14T01:34:26.757Z,25.13
2016-09-14T01:35:27.891Z,25.13
2016-09-14T01:36:27.282Z,25.2
2016-09-14T01:37:26.423Z,25.28
2016-09-14T01:38:26.773Z,25.2
2016-09-14T01:39:26.582Z,25.13
2016-09-14T01:40:26.219Z,25.13
2016-09-14T01:41:26.301Z,25.17
2016-09-14T01:42:26.565Z,25.12
2016-09-14T01:43:26.697Z,25.09
2016-09-14T01:44:26.117Z,25.12
2016-09-14T01:45:26.300Z,25.13
2016-09-14T01:46:26.107Z,25.09
2016-09-14T01:47:27.060Z,24.94
2016-09-14T01:48:26.484Z,24.95
2016-09-14T01:49:26.031Z,25
2016-09-14T01:51:25.995Z,24.87
2016-09-14T01:52:25.952Z,24.82
2016-09-14T01:53:25.951Z,24.92
2016-09-14T01:54:25.897Z,24.97
2016-09-14T01:55:25.879Z,24.94
2016-09-14T01:56:27.272Z,24.87
2016-09-14T01:57:26.734Z,24.83
2016-09-14T01:58:25.829Z,24.92
2016-09-14T02:00:26.173Z,25.25
2016-09-14T02:01:25.757Z,25.27
2016-09-14T02:02:25.721Z,25.32
2016-09-14T02:03:25.691Z,25.5
2016-09-14T02:04:31.794Z,25.52
2016-09-14T02:05:26.115Z,25.57
2016-09-14T02:06:41.093Z,25.27
2016-09-14T02:07:25.630Z,25.28
2016-09-14T02:08:40.303Z,25.25
2016-09-14T02:09:25.546Z,25.25
2016-09-14T02:10:40.256Z,25.16
2016-09-14T02:11:25.521Z,25.12
2016-09-14T02:12:25.869Z,25
2016-09-14T02:13:26.366Z,24.79
2016-09-14T02:14:26.945Z,24.85
2016-09-14T02:15:26.134Z,24.85
2016-09-14T02:16:25.941Z,24.94
2016-09-14T02:17:25.426Z,25.1
2016-09-14T02:18:25.366Z,25.31
2016-09-14T02:19:40.387Z,25.34
2016-09-14T02:20:25.366Z,25.37
2016-09-14T02:21:25.279Z,25.34
2016-09-14T02:22:25.281Z,25.27
2016-09-14T02:23:25.254Z,25.31
2016-09-14T02:24:25.224Z,25.35
2016-09-14T02:25:25.182Z,25.31
2016-09-14T02:26:25.162Z,25.22
2016-09-14T02:27:25.163Z,25.31
2016-09-14T02:28:25.118Z,25.28
2016-09-14T02:29:25.941Z,25.3
2016-09-14T02:30:25.093Z,25.19
2016-09-14T02:31:25.049Z,25.19
2016-09-14T02:32:25.403Z,25.13
2016-09-14T02:33:25.049Z,25.02
2016-09-14T02:34:25.089Z,24.98
2016-09-14T02:35:25.328Z,24.92
2016-09-14T02:36:24.947Z,24.9
2016-09-14T02:37:25.412Z,24.88
2016-09-14T02:38:25.391Z,24.95
2016-09-14T02:39:24.873Z,24.95
2016-09-14T02:40:24.941Z,24.85
2016-09-14T02:41:24.890Z,24.73
2016-09-14T02:42:24.879Z,24.68
2016-09-14T02:43:24.821Z,24.87
2016-09-14T02:44:24.761Z,25.27
2016-09-14T02:45:24.824Z,25.32
2016-09-14T02:46:24.732Z,25.37
2016-09-14T02:47:25.088Z,25.27
2016-09-14T02:48:24.685Z,25.12
2016-09-14T02:49:24.871Z,25.19
2016-09-14T02:50:24.924Z,25.19
2016-09-14T02:51:25.706Z,25.02
2016-09-14T02:52:24.584Z,25.24
2016-09-14T02:53:25.641Z,25.3
2016-09-14T02:54:25.085Z,25.28
2016-09-14T02:55:25.447Z,25.17
2016-09-14T02:56:25.844Z,24.98
2016-09-14T02:57:24.486Z,24.85
2016-09-14T02:58:24.559Z,24.67
2016-09-14T02:59:26.432Z,24.73
2016-09-14T03:00:39.299Z,24.54
2016-09-14T03:01:25.681Z,24.53
2016-09-14T03:02:25.465Z,24.6
2016-09-14T03:03:24.844Z,24.6
2016-09-14T03:04:24.381Z,24.56
2016-09-14T03:05:25.004Z,24.47
2016-09-14T03:06:24.334Z,24.57
2016-09-14T03:07:24.276Z,24.6
2016-09-14T03:08:24.250Z,24.82
2016-09-14T03:09:24.200Z,24.9
2016-09-14T03:10:25.731Z,24.76
2016-09-14T03:11:26.167Z,24.73
2016-09-14T03:12:24.896Z,24.67
2016-09-14T03:13:24.202Z,24.63
2016-09-14T03:14:24.169Z,24.73
2016-09-14T03:15:24.175Z,24.69
2016-09-14T03:16:24.169Z,24.53
2016-09-14T03:17:24.045Z,24.47
2016-09-14T03:18:23.988Z,24.56
2016-09-14T03:19:24.008Z,24.61
2016-09-14T03:20:24.173Z,24.83
2016-09-14T03:21:23.939Z,24.73
2016-09-14T03:22:24.191Z,24.53
2016-09-14T03:23:24.248Z,24.47
2016-09-14T03:24:24.223Z,24.41
2016-09-14T03:25:23.850Z,24.54
2016-09-14T03:26:24.211Z,24.53
2016-09-14T03:27:27.224Z,24.67
2016-09-14T03:28:24.179Z,24.53
2016-09-14T03:29:25.579Z,24.45
2016-09-14T03:30:41.441Z,24.41
2016-09-14T03:31:25.630Z,24.37
2016-09-14T03:32:24.736Z,24.56
2016-09-14T03:33:25.559Z,24.57
2016-09-14T03:34:24.109Z,24.42
2016-09-14T03:35:24.955Z,24.82
2016-09-14T03:36:25.736Z,24.69
2016-09-14T03:37:24.411Z,24.85
2016-09-14T03:38:24.414Z,24.6
2016-09-14T03:39:24.590Z,24.52
2016-09-14T03:40:23.774Z,24.35
2016-09-14T03:41:23.865Z,24.38
2016-09-14T03:42:23.879Z,24.53
2016-09-14T03:43:25.216Z,24.77
2016-09-14T03:44:24.521Z,24.67
2016-09-14T03:45:25.294Z,24.9
2016-09-14T03:46:24.721Z,24.9
2016-09-14T03:47:23.435Z,24.85
2016-09-14T03:49:23.508Z,24.52
2016-09-14T03:50:23.573Z,24.61
2016-09-14T03:51:24.491Z,24.41
2016-09-14T03:52:23.948Z,24.27
2016-09-14T03:53:24.382Z,24.19
2016-09-14T03:54:25.247Z,24.19
2016-09-14T03:55:24.451Z,24.08
2016-09-14T03:56:25.315Z,24.05
2016-09-14T03:57:24.317Z,24.07
2016-09-14T03:58:23.992Z,24.08
2016-09-14T03:59:23.508Z,24.29
2016-09-14T04:00:23.903Z,24.26
2016-09-14T04:01:23.157Z,24.23
2016-09-14T14:47:33.804Z,32.64
2016-09-14T14:48:32.711Z,32.69
2016-09-14T14:49:32.594Z,32.86
2016-09-14T14:50:32.519Z,33.15
2016-09-14T14:51:32.495Z,33.13
2016-09-14T14:52:47.210Z,33.29
2016-09-14T14:53:32.523Z,33.34
2016-09-14T14:54:32.440Z,33.41
2016-09-14T14:55:32.413Z,33.6
2016-09-14T14:56:32.430Z,33.55
2016-09-14T14:57:32.389Z,33.19
2016-09-14T14:58:32.424Z,33.23
2016-09-14T14:59:32.360Z,33.11
2016-09-14T15:00:32.418Z,33.2
2016-09-14T15:01:32.513Z,33.22
2016-09-14T15:02:32.401Z,33.06
2016-09-14T15:03:32.302Z,33.15
2016-09-14T15:04:32.405Z,32.99
2016-09-14T15:05:32.295Z,32.86
2016-09-14T15:06:32.219Z,32.95
2016-09-14T15:07:32.211Z,32.93
2016-09-14T15:08:32.196Z,32.96
2016-09-14T15:09:32.275Z,32.86
2016-09-14T15:10:46.941Z,32.86
2016-09-14T15:11:32.871Z,33.01
2016-09-14T15:12:32.483Z,33.08
2016-09-14T15:13:32.122Z,32.86
2016-09-14T15:14:32.099Z,32.95
2016-09-14T15:15:32.114Z,32.84
2016-09-14T15:16:32.541Z,32.73
2016-09-14T15:17:32.049Z,32.52
2016-09-14T15:18:32.038Z,32.49
2016-09-14T15:19:32.001Z,32.49
2016-09-14T15:20:32.850Z,32.39
2016-09-14T15:21:46.670Z,32.36
2016-09-14T15:22:31.965Z,32.49
2016-09-14T15:23:46.944Z,32.48
2016-09-14T15:24:31.927Z,32.55
2016-09-14T15:26:31.874Z,32.49
2016-09-14T15:27:32.308Z,32.59
2016-09-14T15:28:31.861Z,32.81
2016-09-14T15:29:31.847Z,32.76
2016-09-14T15:30:32.185Z,32.88
2016-09-14T15:31:31.825Z,32.88
2016-09-14T15:32:31.751Z,32.67
2016-09-14T15:33:32.208Z,32.69
2016-09-14T15:35:32.187Z,32.66
2016-09-14T15:36:46.413Z,32.64
2016-09-14T15:37:31.656Z,32.76
2016-09-14T15:38:46.358Z,32.74
2016-09-14T15:39:31.609Z,32.66
2016-09-14T15:40:47.072Z,32.49
2016-09-14T15:41:31.564Z,32.74
2016-09-14T15:42:32.736Z,32.81
2016-09-14T15:43:31.579Z,32.77
2016-09-14T15:44:31.891Z,32.76
2016-09-14T15:45:31.610Z,32.61
2016-09-14T15:46:31.589Z,32.66
2016-09-14T15:47:31.502Z,32.61
2016-09-14T15:48:31.453Z,32.55
2016-09-14T15:49:33.169Z,32.66
2016-09-14T15:50:31.615Z,32.47
2016-09-14T15:51:31.506Z,32.35
2016-09-14T15:52:31.412Z,32.36
2016-09-14T15:53:31.405Z,32.32
2016-09-14T15:54:31.669Z,32.17
2016-09-14T15:55:31.425Z,32.13
2016-09-14T15:56:31.443Z,32.07
2016-09-14T15:57:46.023Z,32.07
2016-09-14T15:58:31.351Z,32.03
2016-09-14T15:59:31.747Z,32.18
2016-09-14T16:00:31.215Z,32.1
2016-09-14T16:01:46.098Z,32.1
2016-09-14T16:02:45.923Z,32.1
2016-09-14T16:03:45.877Z,32.14
2016-09-14T16:04:31.495Z,31.95
2016-09-14T16:05:31.405Z,31.82
2016-09-14T16:06:45.848Z,31.92
2016-09-14T16:07:31.352Z,31.73
2016-09-14T16:08:45.793Z,31.85
2016-09-14T16:09:31.269Z,31.75
2016-09-14T16:10:31.767Z,31.68
2016-09-14T16:11:31.004Z,31.72
2016-09-14T16:12:31.296Z,31.67
2016-09-14T16:13:31.153Z,31.76
2016-09-14T16:14:31.560Z,31.64
2016-09-14T16:15:31.888Z,31.6
2016-09-14T16:16:31.638Z,31.6
2016-09-14T16:18:31.936Z,31.5
2016-09-14T16:19:37.139Z,31.55
2016-09-14T16:20:30.861Z,31.53
2016-09-14T16:21:31.234Z,31.77
2016-09-14T16:22:31.412Z,31.61
2016-09-14T16:23:30.850Z,31.79
2016-09-14T16:25:30.953Z,31.67
2016-09-14T16:26:30.985Z,31.77
2016-09-14T16:27:30.854Z,31.77
2016-09-14T16:28:30.693Z,31.75
2016-09-14T16:29:30.706Z,31.72
2016-09-14T16:30:30.661Z,31.76
2016-09-14T16:31:45.342Z,31.82
2016-09-14T16:32:30.615Z,31.73
2016-09-14T16:33:30.591Z,31.79
2016-09-14T16:34:30.676Z,31.76
2016-09-14T16:35:30.579Z,32
2016-09-14T16:36:31.074Z,31.88
2016-09-14T16:37:30.614Z,31.8
2016-09-14T16:38:31.173Z,31.77
2016-09-14T16:39:30.502Z,31.92
2016-09-14T16:40:30.487Z,31.87
2016-09-14T16:41:31.146Z,31.91
2016-09-14T16:42:30.474Z,32.07
2016-09-14T16:43:30.494Z,32.06
2016-09-14T16:44:45.140Z,32.02
2016-09-14T16:45:31.422Z,31.84
2016-09-14T16:46:30.524Z,31.77
2016-09-14T16:47:30.369Z,31.6
2016-09-14T16:48:30.360Z,31.67
2016-09-14T16:49:30.386Z,31.72
2016-09-14T16:50:30.296Z,31.5
2016-09-14T16:51:30.278Z,31.38
2016-09-14T16:52:30.285Z,31.2
2016-09-14T16:53:31.086Z,31.23
2016-09-14T16:54:30.255Z,31.21
2016-09-14T16:55:31.622Z,31.06
2016-09-14T16:56:36.479Z,30.78
2016-09-14T16:57:30.153Z,30.76
2016-09-14T16:58:30.132Z,30.69
2016-09-14T16:59:30.102Z,30.69
2016-09-14T17:00:30.181Z,30.74
2016-09-14T17:01:30.189Z,30.72
2016-09-14T17:02:30.048Z,30.64
2016-09-14T17:03:30.026Z,30.76
2016-09-14T17:04:30.044Z,30.78
2016-09-14T17:05:29.992Z,30.54
2016-09-14T17:06:30.021Z,30.49
2016-09-14T17:07:29.941Z,30.54
2016-09-14T17:08:29.930Z,30.45
2016-09-14T17:09:29.958Z,30.3
2016-09-14T17:10:29.909Z,30.24
2016-09-14T17:11:29.862Z,30.24
2016-09-14T17:12:29.860Z,30.31
2016-09-14T17:13:29.859Z,30.38
2016-09-14T17:14:29.962Z,30.27
2016-09-14T17:15:29.791Z,30.16
2016-09-14T17:16:44.528Z,30.02
2016-09-14T17:17:30.076Z,30.02
2016-09-14T17:18:29.773Z,29.93
2016-09-14T17:19:29.821Z,29.96
2016-09-14T17:20:29.712Z,30.08
2016-09-14T17:22:29.698Z,29.77
2016-09-14T17:23:44.499Z,29.89
2016-09-14T17:24:29.657Z,29.79
2016-09-14T17:25:29.676Z,29.74
2016-09-14T17:26:29.629Z,29.77
2016-09-14T17:27:29.576Z,29.89
2016-09-14T17:28:29.583Z,29.7
2016-09-14T17:29:29.541Z,29.7
2016-09-14T17:30:31.494Z,29.74
2016-09-14T17:32:29.464Z,29.75
2016-09-14T17:33:29.453Z,29.66
2016-09-14T17:34:29.502Z,29.63
2016-09-14T17:36:29.517Z,29.75
2016-09-14T17:37:29.402Z,29.7
2016-09-14T17:38:29.334Z,29.71
2016-09-14T17:39:29.515Z,29.65
2016-09-14T17:40:29.456Z,29.66
2016-09-14T17:41:29.798Z,29.63
2016-09-14T17:42:29.252Z,29.57
2016-09-14T17:43:29.457Z,29.59
2016-09-14T17:44:29.296Z,29.59
2016-09-14T17:45:29.364Z,29.56
2016-09-14T17:46:29.353Z,29.6
2016-09-14T17:47:29.239Z,29.55
2016-09-14T17:48:29.319Z,29.56
2016-09-14T17:49:29.103Z,29.72
2016-09-14T17:51:29.303Z,29.72
2016-09-14T17:52:38.023Z,29.74
2016-09-14T17:53:29.067Z,29.75
2016-09-14T17:54:43.767Z,29.7
2016-09-14T17:55:29.410Z,29.72
2016-09-14T17:56:29.132Z,29.63
2016-09-14T17:57:28.943Z,29.62
2016-09-14T17:58:28.993Z,29.65
2016-09-14T17:59:29.396Z,29.72
2016-09-14T18:00:29.358Z,29.66
2016-09-14T18:03:29.290Z,29.7
2016-09-14T18:04:29.376Z,29.75
2016-09-14T18:05:43.525Z,29.89
2016-09-14T18:06:28.799Z,29.86
2016-09-14T18:07:43.474Z,29.97
2016-09-14T18:08:28.787Z,29.94
2016-09-14T18:09:29.309Z,29.99
2016-09-14T18:10:28.913Z,30.09
2016-09-14T18:11:29.475Z,30.12
2016-09-14T18:12:28.984Z,30.07
2016-09-14T18:13:29.151Z,30.07
2016-09-14T18:14:29.400Z,30.14
2016-09-14T18:15:29.207Z,30.16
2016-09-14T18:16:28.594Z,30.16
2016-09-14T18:17:29.308Z,30.16
2016-09-14T18:18:28.615Z,30.16
2016-09-14T18:19:28.740Z,30.27
2016-09-14T18:20:28.628Z,30.12
2016-09-14T18:21:43.231Z,30.23
2016-09-14T18:22:28.519Z,30.33
2016-09-14T18:23:28.600Z,30.4
2016-09-14T18:24:28.429Z,30.33
2016-09-14T18:25:28.451Z,30.36
2016-09-14T18:26:28.651Z,30.31
2016-09-14T18:27:28.400Z,30.29
2016-09-14T18:28:28.340Z,30.33
2016-09-14T18:29:28.930Z,30.23
2016-09-14T18:30:29.289Z,30.14
2016-09-14T18:31:28.276Z,30.19
2016-09-14T18:32:28.451Z,30.23
2016-09-14T18:33:28.318Z,30.29
2016-09-14T18:34:43.280Z,30.14
2016-09-14T18:35:28.247Z,30.19
2016-09-14T18:36:42.933Z,30.26
2016-09-14T18:37:28.230Z,30.14
2016-09-14T18:38:28.164Z,30.05
2016-09-14T18:39:28.257Z,30.07
2016-09-14T18:40:28.419Z,30.08
2016-09-14T18:41:28.110Z,30.12
2016-09-14T18:42:28.067Z,30.09
2016-09-14T18:43:28.154Z,30.08
2016-09-14T18:44:28.178Z,30.02
2016-09-14T18:45:28.085Z,29.96
2016-09-14T18:46:28.020Z,29.94
2016-09-14T18:47:42.682Z,29.9
2016-09-14T18:48:28.661Z,29.75
2016-09-14T18:49:28.519Z,29.77
2016-09-14T18:50:28.479Z,29.65
2016-09-14T18:51:28.155Z,29.75
2016-09-14T18:52:28.401Z,29.86
2016-09-14T18:53:27.948Z,30.03
2016-09-14T18:54:27.849Z,30.02
2016-09-14T18:55:28.006Z,30.12
2016-09-14T18:57:27.773Z,30.09
2016-09-14T18:58:34.369Z,29.96
2016-09-14T18:59:27.751Z,29.94
2016-09-14T19:00:43.367Z,29.89
2016-09-14T19:01:27.702Z,29.84
2016-09-14T19:02:27.695Z,29.84
2016-09-14T19:03:28.029Z,29.89
2016-09-14T19:04:27.615Z,29.74
2016-09-14T19:05:27.883Z,29.68
2016-09-14T19:06:27.617Z,29.82
2016-09-14T19:07:27.632Z,29.84
2016-09-14T19:08:27.566Z,29.71
2016-09-14T19:09:27.528Z,29.7
2016-09-14T19:10:27.561Z,29.59
2016-09-14T19:11:27.521Z,29.52
2016-09-14T19:12:27.473Z,29.6
2016-09-14T19:13:27.496Z,29.59
2016-09-14T19:14:27.568Z,29.63
2016-09-14T19:15:27.458Z,29.66
2016-09-14T19:16:27.793Z,29.57
2016-09-14T19:17:27.382Z,29.44
2016-09-14T19:18:27.411Z,29.41
2016-09-14T19:19:27.388Z,29.37
2016-09-14T19:20:43.077Z,29.31
2016-09-14T19:21:27.907Z,29.28
2016-09-14T19:22:27.675Z,29.29
2016-09-14T19:23:27.333Z,29.25
2016-09-14T19:24:27.376Z,29.33
2016-09-14T19:25:27.324Z,29.31
2016-09-14T19:26:27.402Z,29.38
2016-09-14T19:27:41.894Z,29.41
2016-09-14T19:28:27.147Z,29.4
2016-09-14T19:29:29.010Z,29.28
2016-09-14T19:30:27.144Z,29.37
2016-09-14T19:31:27.104Z,29.26
2016-09-14T19:32:27.092Z,29
2016-09-14T19:33:27.536Z,28.73
2016-09-14T19:34:27.101Z,28.87
2016-09-14T19:35:27.235Z,29.16
2016-09-14T19:36:41.779Z,29.18
2016-09-14T19:37:27.087Z,29.07
2016-09-14T19:38:27.013Z,29.01
2016-09-14T19:39:26.939Z,28.95
2016-09-14T19:40:27.620Z,28.85
2016-09-14T19:41:26.965Z,29.18
2016-09-14T19:42:26.902Z,29.18
2016-09-14T19:43:41.652Z,29.04
2016-09-14T19:44:26.846Z,29
2016-09-14T19:45:27.547Z,29.19
2016-09-14T19:46:27.197Z,29.06
2016-09-14T19:47:27.291Z,29.04
2016-09-14T19:48:27.468Z,29.19
2016-09-14T19:49:26.834Z,29.03
2016-09-14T19:50:26.733Z,28.96
2016-09-14T19:51:27.333Z,29.04
2016-09-14T19:52:27.608Z,29.08
2016-09-14T19:53:26.754Z,29.04
2016-09-14T19:54:27.512Z,28.88
2016-09-14T19:55:26.967Z,28.88
2016-09-14T19:56:26.634Z,28.85
2016-09-14T19:57:37.224Z,28.8
2016-09-14T19:58:26.561Z,28.75
2016-09-14T19:59:26.762Z,28.6
2016-09-14T20:00:26.654Z,28.5
2016-09-14T20:01:26.590Z,28.7
2016-09-14T20:02:26.441Z,28.8
2016-09-14T20:03:26.464Z,28.73
2016-09-14T20:04:26.425Z,28.69
2016-09-14T20:05:26.574Z,28.66
2016-09-14T20:06:26.552Z,28.78
2016-09-14T20:07:26.873Z,28.8
2016-09-14T20:08:26.343Z,28.56
2016-09-14T20:09:26.298Z,28.62
2016-09-14T20:10:26.305Z,28.73
2016-09-14T20:11:26.275Z,28.63
2016-09-14T20:12:26.608Z,28.43
2016-09-14T20:13:26.221Z,28.33
2016-09-14T20:14:26.812Z,28.32
2016-09-14T20:15:26.251Z,28.35
2016-09-14T20:16:26.220Z,28.62
2016-09-14T20:17:26.205Z,28.77
2016-09-14T20:18:40.855Z,28.7
2016-09-14T20:19:26.115Z,28.73
2016-09-14T20:20:26.098Z,28.65
2016-09-14T20:21:26.104Z,28.46
2016-09-14T20:22:26.044Z,28.41
2016-09-14T20:23:26.457Z,28.23
2016-09-14T20:24:26.248Z,28.25
2016-09-14T20:25:26.013Z,28.17
2016-09-14T20:26:25.965Z,28.26
2016-09-14T20:27:25.924Z,28.22
2016-09-14T20:28:25.956Z,28.11
2016-09-14T20:29:26.377Z,28.06
2016-09-14T20:30:25.893Z,28.09
2016-09-14T20:31:26.017Z,28.14
2016-09-14T20:32:25.888Z,28.22
2016-09-14T20:33:25.823Z,28.26
2016-09-14T20:34:40.806Z,28.13
2016-09-14T20:35:25.992Z,28.17
2016-09-14T20:36:26.133Z,28.11
2016-09-14T20:37:26.309Z,28.03
2016-09-14T20:38:26.072Z,28.07
2016-09-14T20:39:26.138Z,27.92
2016-09-14T20:40:26.439Z,27.86
2016-09-14T20:41:25.644Z,27.86
2016-09-14T20:42:25.674Z,27.99
2016-09-14T20:43:25.586Z,27.89
2016-09-14T20:44:26.398Z,27.76
2016-09-14T20:45:40.299Z,27.54
2016-09-14T20:46:25.619Z,27.32
2016-09-14T20:47:40.245Z,27.35
2016-09-14T20:48:25.554Z,27.41
2016-09-14T20:49:26.070Z,27.42
2016-09-14T20:50:25.966Z,27.5
2016-09-14T20:51:25.459Z,27.41
2016-09-14T20:52:25.803Z,27.38
2016-09-14T20:53:26.299Z,27.28
2016-09-14T20:54:40.088Z,27.28
2016-09-14T20:55:25.363Z,27.26
2016-09-14T20:56:25.463Z,27.48
2016-09-14T20:57:25.333Z,27.43
2016-09-14T20:58:25.279Z,27.43
2016-09-14T20:59:25.276Z,27.24
2016-09-14T21:00:26.508Z,27.31
2016-09-14T21:01:25.650Z,27.35
2016-09-14T21:02:25.292Z,27.35
2016-09-14T21:03:25.216Z,27.33
2016-09-14T21:04:25.322Z,27.41
2016-09-14T21:05:25.167Z,27.48
2016-09-14T21:06:25.487Z,27.36
2016-09-14T21:07:25.088Z,27.29
2016-09-14T21:08:25.098Z,27.29
2016-09-14T21:09:25.164Z,27.19
2016-09-14T21:10:25.020Z,27.16
2016-09-14T21:11:25.472Z,27.28
2016-09-14T21:12:25.561Z,27.14
2016-09-14T21:13:25.013Z,27.36
2016-09-14T21:14:24.987Z,27.32
2016-09-14T21:15:25.023Z,27.47
2016-09-14T21:16:25.407Z,27.43
2016-09-14T21:17:25.284Z,27.53
2016-09-14T21:18:24.880Z,27.46
2016-09-14T21:19:25.278Z,27.24
2016-09-14T21:20:24.861Z,27.13
2016-09-14T21:21:24.862Z,26.99
2016-09-14T21:22:24.846Z,26.99
2016-09-14T21:23:24.735Z,27.04
2016-09-14T21:24:24.733Z,26.87
2016-09-14T21:25:24.725Z,26.84
2016-09-14T21:26:25.087Z,27.04
2016-09-14T21:27:39.380Z,27.02
2016-09-14T21:28:25.030Z,26.91
2016-09-14T21:29:39.353Z,26.84
2016-09-14T21:30:24.998Z,26.87
2016-09-14T21:31:24.605Z,26.76
2016-09-14T21:32:24.583Z,26.68
2016-09-14T21:33:24.579Z,26.73
2016-09-14T21:34:24.902Z,26.8
2016-09-14T21:35:24.499Z,26.92
2016-09-14T21:36:24.520Z,26.94
2016-09-14T21:37:24.445Z,27.2
2016-09-14T21:38:24.466Z,27.35
2016-09-14T21:39:24.496Z,27.32
2016-09-14T21:40:39.465Z,27.26
2016-09-14T21:41:24.860Z,27.19
2016-09-14T21:42:24.468Z,27.23
2016-09-14T21:43:24.377Z,27.1
2016-09-14T21:44:24.411Z,27.05
2016-09-14T21:45:24.311Z,26.94
2016-09-14T21:46:24.273Z,26.91
2016-09-14T21:47:24.270Z,27.23
2016-09-14T21:48:24.215Z,27.47
2016-09-14T21:49:24.667Z,27.5
2016-09-14T21:50:24.185Z,27.35
2016-09-14T21:51:24.164Z,27.16
2016-09-14T21:52:24.140Z,27.06
2016-09-14T21:53:24.106Z,27.2
2016-09-14T21:54:24.092Z,27.2
2016-09-14T21:55:24.094Z,27.16
2016-09-14T21:56:24.074Z,27.21
2016-09-14T21:57:24.043Z,27.36
2016-09-14T21:59:23.980Z,27.05
2016-09-14T22:00:23.981Z,27.02
2016-09-14T22:01:23.927Z,27.06
2016-09-14T22:02:24.180Z,27.23
2016-09-14T22:03:23.880Z,27.24
2016-09-14T22:04:24.251Z,27.06
2016-09-14T22:05:23.834Z,26.8
2016-09-14T22:06:23.872Z,26.62
2016-09-14T22:07:24.260Z,26.39
2016-09-14T22:08:23.834Z,26.39
2016-09-14T22:09:29.069Z,26.4
2016-09-14T22:10:23.740Z,26.32
2016-09-14T22:12:23.684Z,26.02
2016-09-14T22:13:23.719Z,26.09
2016-09-14T22:14:24.018Z,26.12
2016-09-14T22:15:23.729Z,25.98
2016-09-14T22:16:23.727Z,25.89
2016-09-14T22:17:24.020Z,25.87
2016-09-14T22:18:23.562Z,25.83
2016-09-14T22:19:23.962Z,25.84
2016-09-14T22:20:39.021Z,25.9
2016-09-14T22:21:23.644Z,25.94
2016-09-14T22:22:23.970Z,26.2
2016-09-14T22:23:24.380Z,26.09
2016-09-14T22:24:23.654Z,26.29
2016-09-14T22:25:23.893Z,26.24
2016-09-14T22:26:23.999Z,26.06
2016-09-14T22:27:24.364Z,26.17
2016-09-14T22:28:23.383Z,26.18
2016-09-14T22:29:23.849Z,26.2
2016-09-14T22:30:24.928Z,26.27
2016-09-14T22:31:23.264Z,26.28
2016-09-14T22:32:23.611Z,26.36
2016-09-14T22:33:23.358Z,26.68
2016-09-14T22:34:23.184Z,26.67
2016-09-14T22:35:23.161Z,26.62
2016-09-14T22:36:23.779Z,26.65
2016-09-14T22:37:23.795Z,26.62
2016-09-14T22:38:23.602Z,26.69
2016-09-14T22:39:23.670Z,26.79
2016-09-14T22:40:23.092Z,26.84
2016-09-14T22:41:23.425Z,26.84
2016-09-14T22:43:23.119Z,26.54
2016-09-14T22:44:38.005Z,26.58
2016-09-14T22:45:23.010Z,26.54
2016-09-14T22:46:38.310Z,26.54
2016-09-14T22:47:23.111Z,26.61
2016-09-14T22:48:23.283Z,26.69
2016-09-14T22:49:23.014Z,26.67
2016-09-14T22:50:23.337Z,26.49
2016-09-14T22:51:23.004Z,26.5
2016-09-14T22:52:23.002Z,26.57
2016-09-14T22:53:22.832Z,26.65
2016-09-14T22:54:22.746Z,26.47
2016-09-14T22:55:37.497Z,26.31
2016-09-14T22:56:22.702Z,26.35
2016-09-14T22:57:22.694Z,26.32
2016-09-14T22:58:23.057Z,26.37
2016-09-14T22:59:22.908Z,26.42
2016-09-14T23:01:23.285Z,26.52
2016-09-14T23:02:22.574Z,26.64
2016-09-14T23:03:23.056Z,26.84
2016-09-14T23:04:22.709Z,26.79
2016-09-14T23:05:22.870Z,26.72
2016-09-14T23:06:23.005Z,26.62
2016-09-14T23:07:22.451Z,26.65
2016-09-14T23:08:22.429Z,26.35
2016-09-14T23:09:22.442Z,26.21
2016-09-14T23:10:22.406Z,26.09
2016-09-14T23:11:22.466Z,26.02
2016-09-14T23:12:23.527Z,26.08
2016-09-14T23:13:22.381Z,26.25
2016-09-14T23:14:22.699Z,26.02
2016-09-14T23:15:22.311Z,26.11
2016-09-14T23:16:37.291Z,26.28
2016-09-14T23:17:22.494Z,26.27
2016-09-14T23:18:22.425Z,26.39
2016-09-14T23:19:22.505Z,26.43
2016-09-14T23:20:22.313Z,26.49
2016-09-14T23:21:22.333Z,26.37
2016-09-14T23:22:22.542Z,26.2
2016-09-14T23:23:22.161Z,26.24
2016-09-14T23:24:22.156Z,26.02
2016-09-14T23:25:22.465Z,26.01
2016-09-14T23:26:22.224Z,25.98
2016-09-14T23:27:22.296Z,25.99
2016-09-14T23:28:22.539Z,26.09
2016-09-14T23:29:37.212Z,26.05
2016-09-14T23:30:22.764Z,26.01
2016-09-14T23:31:21.933Z,26.05
2016-09-14T23:32:22.021Z,25.98
2016-09-14T23:33:22.500Z,25.99
2016-09-14T23:34:22.430Z,26.02
2016-09-14T23:35:22.555Z,25.98
2016-09-14T23:36:21.837Z,25.94
2016-09-14T23:37:22.534Z,25.89
2016-09-14T23:38:21.801Z,26.11
2016-09-14T23:39:21.751Z,26.21
2016-09-14T23:40:22.441Z,26.29
2016-09-14T23:41:21.780Z,26.25
2016-09-14T23:42:21.707Z,26.22
2016-09-14T23:43:21.737Z,26.24
2016-09-14T23:44:22.605Z,26.36
2016-09-14T23:45:22.180Z,26.18
2016-09-14T23:46:21.875Z,26.22
2016-09-14T23:47:22.095Z,26.22
2016-09-14T23:48:21.572Z,26.17
2016-09-14T23:49:21.970Z,26.2
2016-09-14T23:50:21.597Z,26.04
2016-09-14T23:51:21.516Z,26.06
2016-09-14T23:52:21.492Z,26.09
2016-09-14T23:53:21.722Z,26.01
2016-09-14T23:54:21.442Z,26.05
2016-09-14T23:55:36.740Z,25.99
2016-09-14T23:56:21.758Z,25.99
2016-09-14T23:57:21.722Z,26.05
2016-09-14T23:58:21.605Z,26.02
2016-09-14T23:59:21.380Z,26.04
